Terminal Aerodrome Forecast
Issued by NWS

Home | Current Version | Previous Version | Text Only | Print | Product List | Glossary On
Versions: 1 2 3 4 5 6 7 8 9 10 11 12
000
FTUS44 KOUN 241733
TAFCSM
TAF
KCSM 241733Z 2418/2518 24025G36KT P6SM SCT250
     FM250100 26013KT P6SM SCT250
     FM250500 34012KT P6SM SCT250=

USA.gov is the U.S. government's official web portal to all federal, state and local government web resources and services.